x

San Clemente Basin - 27nm Se Of San Clemente Is, Ca (46086) Wave Buoy

12:50 - Tue 22nd Aug 2017 All times are PDT. -7 hours from GMT.

  • Sig Wave height 3.0ft
  • Swell Direction
  • Peak Period 11s
  • Average Period 6s
  • Wind
    9mph, 11mph gusts
  • Sea Temp 71°f
  • Air Temp 67°f
  • Sea Pressure 1015.6mb
  • San Clemente Basin - 27nm Se Of San Clemente Is, Ca
  • San Clemente Basin - 27nm Se Of San Clemente Is, Ca

More Historic Weather Station data

Upgrade to MSW Pro to gain access to the past 30 days of data for over 8000 Wavebouys and Weather Stations around the globe.

Join

Comparision Forecast

View Surf forecast
   
mar. 08/22 12:50 3ft 11s 6s 9 11 mph 1015.6mb 71f 67f
lun. 08/21 11:50 2.5ft 12s 6s 11 13 mph 1015.5mb 71f 67f
10:50 2.5ft 10s 6s 11 13 mph 1015.5mb 71f 67f
9:50 2.5ft 13s 7s 11 13 mph 1015.4mb 71f 67f
8:50 3ft 13s 7s 9 11 mph 1015.1mb 71f 67f
7:50 2.5ft 13s 6s 11 13 mph 1014.8mb 71f 67f
6:50 2.5ft 10s 7s 9 11 mph 1014.5mb 71f 68f
5:50 2.5ft 13s 7s 11 13 mph 1014.5mb 71f 68f
4:50 2.5ft 14s 8s 11 13 mph 1015.1mb 71f 68f
3:50 2.5ft 13s 8s 9 11 mph 1015.5mb 71f 69f
2:50 2.5ft 11s 8s 9 9 mph 1016.1mb 71f 69f
1:50 2.5ft 12s 8s 7 9 mph 1016.7mb 71f 68f
12:50 3ft 13s 8s 4 7 mph 1016.4mb 71f 68f
11:50 2.5ft 13s 8s 4 7 mph 1016.5mb 71f 68f
10:50 2.5ft 11s 8s 7 7 mph 1016.6mb 70f 67f
9:50 2.5ft 13s 8s 7 7 mph 1016.3mb 70f 67f
8:50 2.5ft 10s 8s 2 4 mph 1016mb 70f 68f
7:50 3ft 13s 9s 4 7 mph 1015.7mb 70f 67f
5:50 3ft 13s 9s 4 7 mph 1014.6mb 70f 67f
4:50 3ft 13s 9s 4 7 mph 1014.3mb 70f 67f
3:50 3.5ft 11s 9s 7 9 mph 1014.4mb 70f 67f
2:50 2.5ft 11s 8s 4 7 mph 1014.5mb 70f 67f
1:50 2.5ft 14s 8s 4 7 mph 1014.6mb 70f 67f
12:50 3ft 14s 9s 2 4 mph 1014.6mb 71f 67f
dim. 08/20 11:50 3ft 13s 8s 4 7 mph 1014.7mb 71f 67f
10:50 2.5ft 11s 8s 4 4 mph 1014.5mb 71f 67f
9:50 3ft 14s 9s 4 4 mph 1014.3mb 71f 67f
8:50 3.5ft 14s 9s 4 7 mph 1013.6mb 71f 67f
7:50 3ft 11s 8s 7 9 mph 1013mb 70f 67f
6:50 3ft 14s 9s 7 9 mph 1012.5mb 70f 67f
5:50 3ft 13s 9s 7 7 mph 1012.5mb 70f 66f
4:50 3.5ft 14s 8s 7 7 mph 1012.6mb 70f 66f
3:50 3ft 14s 8s 4 7 mph 1012.8mb 70f 65f
2:50 3.5ft 13s 8s 11 11 mph 1013.3mb 70f 65f
1:50 3.5ft 14s 9s 9 11 mph 1013.8mb 70f 66f
12:50 3.5ft 14s 9s 7 11 mph 1014.1mb 70f 67f
11:50 3ft 10s 8s  -  2 mph 1014.5mb 70f 67f
10:50 3ft 14s 9s  -  2 mph 1014.8mb 70f 66f
9:50 3ft 14s 8s 4 7 mph 1014.8mb 71f 66f
8:50 3ft 14s 8s 4 4 mph 1014.6mb 71f 66f
7:50 3ft 14s 9s 4 9 mph 1014.3mb 71f 65f
6:50 3.5ft 14s 9s 4 4 mph 1013.9mb 71f 65f
5:50 3.5ft 15s 9s 2 7 mph 1013.5mb 71f 65f
4:50 3ft 14s 7s 4 7 mph 1013.3mb 71f 65f
3:50 3.5ft 14s 9s 4 7 mph 1013.3mb 71f 65f
2:50 3ft 15s 8s  -  2 mph 1013.8mb 71f 65f
1:50 3ft 15s 7s 2 7 mph 1014mb 71f 65f
12:50 3ft 15s 7s 4 7 mph 1014.2mb 71f 66f
sam. 08/19 11:50 3.5ft 14s 7s 4 7 mph 1014.4mb 71f 66f
10:50 3ft 15s 7s 7 9 mph 1014.4mb 70f 66f
9:50 3.5ft 15s 7s 9 11 mph 1014.1mb 70f 66f
8:50 3.5ft 15s 7s 9 11 mph 1013.7mb 70f 66f
7:50 3.5ft 15s 7s 9 11 mph 1013.1mb 70f 66f
6:50 3.5ft 15s 7s 11 13 mph 1012.9mb 70f 66f
5:50 3ft 15s 7s 11 13 mph 1012.9mb 71f 66f
4:50 3.5ft 15s 7s 11 13 mph 1013mb 71f 66f
3:50 3.5ft 15s 8s 11 13 mph 1013.4mb 71f 66f
2:50 3.5ft 15s 7s 11 13 mph 1014.1mb 71f 66f
1:50 3ft 15s 7s 9 11 mph 1014.9mb 72f 66f
12:50 3.5ft 15s 7s 4 7 mph 1015.1mb 71f 66f
11:50 3ft 15s 7s 2 2 mph 1015.3mb 71f 66f
10:50 3.5ft 15s 7s 4 7 mph 1015.6mb 70f 66f
9:50 4ft 16s 7s 7 11 mph 1015.7mb 69f 65f
8:50 3.5ft 15s 7s 4 7 mph 1015.7mb 69f 65f
7:50 3.5ft 16s 7s 9 13 mph 1015.4mb 69f 64f
6:50 3.5ft 15s 7s 9 11 mph 1015.1mb 69f 64f
5:50 3.5ft 15s 7s 9 11 mph 1014.6mb 69f 64f
4:50 3.5ft 16s 7s 9 11 mph 1014.3mb 69f 64f
3:50 4ft 16s 7s 7 11 mph 1014.3mb 69f 64f
2:50 4ft 16s 7s 7 11 mph 1014.6mb 70f 64f
1:50 3.5ft 17s 6s 7 11 mph 1014.8mb 70f 65f
12:50 3.5ft 16s 6s 9 11 mph 1015.1mb 69f 65f
ven. 08/18 11:50 4ft 16s 6s 11 13 mph 1015.2mb 70f 65f
10:50 4ft 16s 6s 11 16 mph 1015.3mb 70f 65f
9:50 4ft 16s 5s 13 18 mph 1015mb 70f 65f
8:50 4ft 16s 6s 16 18 mph 1014.5mb 70f 65f
7:50 4.5ft 16s 6s 16 18 mph 1013.9mb 70f 65f
6:50 4ft 16s 5s 16 18 mph 1013.9mb 70f 66f
5:50 3.5ft 16s 6s 16 18 mph 1014.2mb 70f 66f
4:50 3.5ft 16s 6s 16 18 mph 1014.4mb 70f 66f
3:50 3.5ft 16s 6s 16 18 mph 1015.1mb 70f 66f
2:50 4ft 16s 8s 13 16 mph 1015.6mb 70f 66f
1:50 3.5ft 16s 7s 11 16 mph 1016.3mb 70f 65f
12:50 4ft 16s 7s 11 13 mph 1016.6mb 70f 65f
11:50 4.5ft 17s 8s 9 11 mph 1016.9mb 70f 65f
10:50 3.5ft 16s 7s 7 9 mph 1017mb 70f 66f
9:50 4ft 16s 7s 9 11 mph 1017mb 70f 66f